createdAt,value
2022-08-16T05:57:21.127Z,21.33
2022-08-16T06:00:05.697Z,21.39
2022-08-16T06:02:49.037Z,21.44
2022-08-16T06:05:47.322Z,21.51
2022-08-16T06:08:31.520Z,21.58
2022-08-16T06:11:13.625Z,21.64
2022-08-16T06:13:56.515Z,21.62
2022-08-16T06:16:50.535Z,21.70
2022-08-16T06:19:29.822Z,21.80
2022-08-16T06:22:39.515Z,21.85
2022-08-16T06:25:17.979Z,21.92
2022-08-16T06:28:17.299Z,21.94
2022-08-16T06:31:17.655Z,22.03
2022-08-16T06:34:03.027Z,22.06
2022-08-16T06:36:59.741Z,22.14
2022-08-16T06:39:46.697Z,22.16
2022-08-16T06:42:52.795Z,22.22
2022-08-16T06:45:59.406Z,22.26
2022-08-16T06:48:44.014Z,22.33
2022-08-16T06:51:45.179Z,22.37
2022-08-16T06:54:24.084Z,22.43
2022-08-16T06:57:04.231Z,22.50
2022-08-16T06:59:52.231Z,22.54
2022-08-16T07:02:51.764Z,22.61
2022-08-16T07:05:41.446Z,22.72
2022-08-16T07:08:25.544Z,22.78
2022-08-16T07:11:04.699Z,22.83
2022-08-16T07:14:00.270Z,22.89
2022-08-16T07:16:48.908Z,22.96
2022-08-16T07:20:01.363Z,22.99
2022-08-16T07:22:37.642Z,23.03
2022-08-16T07:25:23.027Z,23.10
2022-08-16T07:28:00.788Z,23.18
2022-08-16T07:30:46.678Z,23.26
2022-08-16T07:33:53.711Z,23.32
2022-08-16T07:36:38.914Z,23.34
2022-08-16T07:39:20.394Z,23.43
2022-08-16T07:41:57.606Z,23.47
2022-08-16T07:44:48.953Z,23.55
2022-08-16T07:47:31.706Z,23.62
2022-08-16T07:50:55.907Z,23.71
2022-08-16T07:53:09.127Z,23.76
2022-08-16T07:55:52.556Z,23.86
2022-08-16T07:58:37.915Z,23.93
2022-08-16T08:01:20.239Z,23.97
2022-08-16T08:04:13.052Z,24.06
2022-08-16T08:06:52.546Z,24.12
2022-08-16T08:09:29.861Z,24.21
2022-08-16T08:12:31.915Z,24.30
2022-08-16T08:15:11.647Z,24.38
2022-08-16T08:17:51.226Z,24.47
2022-08-16T08:20:35.535Z,24.50
2022-08-16T08:23:18.223Z,24.57
2022-08-16T08:25:59.191Z,24.64
2022-08-16T08:28:40.275Z,24.77
2022-08-16T08:31:18.927Z,24.84
2022-08-16T08:33:57.115Z,24.89
2022-08-16T08:36:38.435Z,24.99
2022-08-16T08:39:55.055Z,25.09
2022-08-16T08:42:33.768Z,25.20
2022-08-16T08:45:43.128Z,25.35
2022-08-16T08:48:33.123Z,25.49
2022-08-16T08:51:14.447Z,25.77
2022-08-16T08:54:00.997Z,26.07
2022-08-16T08:56:45.672Z,26.33
2022-08-16T08:59:40.700Z,26.94
2022-08-16T09:02:23.155Z,27.38
2022-08-16T09:05:15.259Z,27.85
2022-08-16T09:08:00.312Z,28.19
2022-08-16T09:10:59.201Z,28.52
2022-08-16T09:13:47.141Z,28.71
2022-08-16T09:17:01.366Z,28.84
2022-08-16T09:19:32.857Z,28.87
2022-08-16T09:22:19.952Z,28.82
2022-08-16T09:25:12.378Z,28.82
2022-08-16T09:27:58.125Z,28.85
2022-08-16T09:30:43.962Z,28.84
2022-08-16T09:33:22.137Z,28.85
2022-08-16T09:36:01.718Z,28.88
2022-08-16T09:38:41.245Z,28.87
2022-08-16T09:41:19.573Z,28.91
2022-08-16T09:43:59.632Z,28.94
2022-08-16T09:46:48.178Z,29.02
2022-08-16T09:49:37.146Z,29.13
2022-08-16T09:52:16.917Z,29.23
2022-08-16T09:54:54.935Z,29.27
2022-08-16T10:01:53.195Z,29.47
2022-08-16T10:04:38.894Z,29.60
2022-08-16T10:07:44.561Z,29.72
2022-08-16T10:10:31.066Z,29.80
2022-08-16T10:13:16.344Z,29.87
2022-08-16T10:16:00.455Z,29.96
2022-08-16T10:19:00.676Z,30.00
2022-08-16T10:21:38.654Z,30.06
2022-08-16T10:24:27.945Z,30.18
2022-08-16T10:27:26.453Z,30.26
2022-08-16T10:30:07.095Z,30.26
2022-08-16T10:33:03.256Z,30.46
2022-08-16T10:35:46.515Z,30.52
2022-08-16T10:38:27.337Z,30.56
2022-08-16T10:41:10.295Z,30.63
2022-08-16T10:43:50.349Z,30.71
2022-08-16T10:46:33.774Z,30.79
2022-08-16T10:49:18.517Z,30.88
2022-08-16T10:52:01.809Z,31.00
2022-08-16T10:57:40.241Z,31.26
2022-08-16T11:00:22.701Z,31.24
2022-08-16T11:03:01.216Z,31.29
2022-08-16T11:05:59.599Z,31.47
2022-08-16T11:08:39.630Z,31.65
2022-08-16T11:14:17.195Z,31.86
2022-08-16T11:17:02.077Z,31.96
2022-08-16T11:22:47.459Z,32.20
2022-08-16T11:29:12.291Z,32.47
2022-08-16T11:31:33.024Z,32.64
2022-08-16T11:34:11.626Z,32.78
2022-08-16T11:36:53.998Z,32.92
2022-08-16T11:39:38.585Z,33.03
2022-08-16T11:42:23.131Z,33.04
2022-08-16T11:45:07.725Z,33.06
2022-08-16T11:47:47.433Z,33.14
2022-08-16T11:50:25.811Z,33.28
2022-08-16T11:53:03.688Z,33.29
2022-08-16T11:55:43.984Z,33.34
2022-08-16T11:58:21.388Z,33.43
2022-08-16T12:01:03.307Z,33.37
2022-08-16T12:03:43.636Z,33.56
2022-08-16T12:06:25.102Z,33.67
2022-08-16T12:09:08.053Z,33.79
2022-08-16T12:11:47.295Z,34.01
2022-08-16T12:14:29.965Z,34.22
2022-08-16T12:17:13.153Z,34.39
2022-08-16T12:19:53.782Z,34.55
2022-08-16T12:22:31.457Z,34.64
2022-08-16T12:25:19.288Z,34.67
2022-08-16T12:27:59.003Z,34.72
2022-08-16T12:30:41.779Z,34.91
2022-08-16T12:33:25.581Z,35.01
2022-08-16T12:36:05.644Z,35.23
2022-08-16T12:38:48.596Z,35.22
2022-08-16T12:41:25.954Z,35.12
2022-08-16T12:44:04.692Z,35.09
2022-08-16T12:47:03.589Z,35.34
2022-08-16T12:49:41.952Z,35.92
2022-08-16T12:52:33.170Z,36.77
2022-08-16T12:55:14.390Z,37.45
2022-08-16T12:57:58.520Z,38.06
2022-08-16T13:00:38.321Z,37.87
2022-08-16T13:03:17.587Z,38.01
2022-08-16T13:05:55.935Z,38.10
2022-08-16T13:08:36.354Z,37.83
2022-08-16T13:11:14.708Z,37.32
2022-08-16T13:13:55.129Z,36.34
2022-08-16T13:16:32.332Z,36.14
2022-08-16T13:19:11.030Z,35.63
2022-08-16T13:21:49.979Z,36.06
2022-08-16T13:24:30.158Z,35.45
2022-08-16T13:27:07.188Z,35.05
2022-08-16T13:29:45.489Z,34.83
2022-08-16T13:32:40.095Z,34.40
2022-08-16T13:35:17.448Z,34.43
2022-08-16T13:37:54.908Z,34.45
2022-08-16T13:40:34.628Z,34.36
2022-08-16T13:43:12.149Z,34.43
2022-08-16T13:45:50.559Z,34.37
2022-08-16T13:48:42.867Z,34.32
2022-08-16T13:51:24.241Z,34.13
2022-08-16T13:54:06.206Z,34.02
2022-08-16T13:56:46.413Z,33.80
2022-08-16T13:59:24.287Z,33.58
2022-08-16T14:02:07.111Z,33.34
2022-08-16T14:04:46.488Z,33.18
2022-08-16T14:07:40.638Z,32.97
2022-08-16T14:10:17.790Z,32.81
2022-08-16T14:12:57.280Z,32.60
2022-08-16T14:15:34.549Z,32.38
2022-08-16T14:18:17.414Z,32.22
2022-08-16T14:20:57.018Z,32.03
2022-08-16T14:23:34.555Z,31.87
2022-08-16T14:26:11.788Z,31.75
2022-08-16T14:28:54.544Z,31.63
2022-08-16T14:31:36.177Z,31.49
2022-08-16T14:34:16.288Z,31.34
2022-08-16T14:36:54.128Z,31.17
2022-08-16T14:39:31.387Z,31.11
2022-08-16T14:42:11.698Z,31.00
2022-08-16T14:44:54.181Z,30.87
2022-08-16T14:47:34.929Z,30.78
2022-08-16T14:50:17.322Z,30.70
2022-08-16T14:53:02.021Z,30.56
2022-08-16T14:55:42.723Z,30.48
2022-08-16T14:58:34.796Z,30.36
2022-08-16T15:01:16.420Z,30.22
2022-08-16T15:03:55.291Z,29.95
2022-08-16T15:06:32.291Z,29.81
2022-08-16T15:09:09.540Z,29.58
2022-08-16T15:11:46.820Z,29.37
2022-08-16T15:14:24.058Z,28.86
2022-08-16T15:17:03.550Z,28.57
2022-08-16T15:19:41.669Z,28.08
2022-08-16T15:22:27.162Z,27.73
2022-08-16T15:25:08.498Z,27.16
2022-08-16T15:27:54.849Z,26.86
2022-08-16T15:30:57.949Z,26.30
2022-08-16T15:33:35.287Z,25.82
2022-08-16T15:36:17.983Z,25.47
2022-08-16T15:39:06.859Z,25.19
2022-08-16T15:42:05.797Z,24.95
2022-08-16T15:44:53.041Z,24.85
2022-08-16T15:47:33.747Z,24.67
2022-08-16T15:50:15.816Z,24.52
2022-08-16T15:52:53.847Z,24.28
2022-08-16T15:55:35.321Z,24.07
2022-08-16T15:58:35.179Z,23.96
2022-08-16T16:01:10.506Z,23.84
2022-08-16T16:03:48.357Z,23.79
2022-08-16T16:06:28.933Z,23.80
2022-08-16T16:09:06.874Z,23.81
2022-08-16T16:11:46.698Z,23.79
2022-08-16T16:14:24.995Z,23.66
2022-08-16T16:17:06.585Z,23.52
2022-08-16T16:19:43.703Z,23.42
2022-08-16T16:22:25.247Z,23.28
2022-08-16T16:25:03.187Z,23.28
2022-08-16T16:27:41.558Z,23.20
2022-08-16T16:30:32.693Z,23.21
2022-08-16T16:33:15.555Z,23.22
2022-08-16T16:36:03.697Z,23.27
2022-08-16T16:38:49.327Z,23.28
2022-08-16T16:41:29.404Z,23.27
2022-08-16T16:44:08.143Z,23.23
2022-08-16T16:46:56.624Z,23.22
2022-08-16T16:49:35.129Z,23.19
2022-08-16T16:52:43.521Z,23.21
2022-08-16T16:55:18.779Z,23.21
2022-08-16T16:58:18.175Z,23.18
2022-08-16T17:01:07.333Z,23.15
2022-08-16T17:03:46.180Z,23.14
2022-08-16T17:06:31.861Z,23.11
2022-08-16T17:09:14.399Z,23.05
2022-08-16T17:11:55.498Z,23.00
2022-08-16T17:14:34.543Z,23.00
2022-08-16T17:17:13.381Z,23.01
2022-08-16T17:19:51.129Z,23.04
2022-08-16T17:22:32.771Z,23.05
2022-08-16T17:25:13.849Z,23.04
2022-08-16T17:27:58.753Z,23.05
2022-08-16T17:30:45.207Z,23.06
2022-08-16T17:33:23.279Z,23.07
2022-08-16T17:36:00.447Z,23.09
2022-08-16T17:39:27.328Z,23.09
2022-08-16T17:41:34.567Z,23.08
2022-08-16T17:44:14.228Z,23.09
2022-08-16T17:46:53.022Z,23.10
2022-08-16T17:49:32.181Z,23.10
2022-08-16T17:52:12.082Z,23.10
2022-08-16T17:54:49.450Z,23.06
2022-08-16T17:57:26.701Z,23.02
2022-08-16T18:00:09.567Z,23.03
2022-08-16T18:02:50.691Z,23.04
2022-08-16T18:05:29.961Z,23.04
2022-08-16T18:08:10.109Z,22.97
2022-08-16T18:10:47.940Z,22.91
2022-08-16T18:13:27.501Z,22.85
2022-08-16T18:16:07.831Z,22.67
2022-08-16T18:18:46.500Z,22.52
2022-08-16T18:21:35.537Z,22.43
2022-08-16T18:24:15.212Z,22.33
2022-08-16T18:26:52.070Z,22.32
2022-08-16T18:29:29.857Z,22.23
2022-08-16T18:32:12.593Z,22.16
2022-08-16T18:34:50.350Z,22.07
2022-08-16T18:37:28.338Z,22.06
2022-08-16T18:40:06.514Z,22.02
2022-08-16T18:42:43.616Z,21.96
2022-08-16T18:45:21.205Z,21.87
2022-08-16T18:48:00.681Z,21.87
2022-08-16T18:51:04.844Z,21.80
2022-08-16T18:53:37.370Z,21.77
2022-08-16T18:56:15.173Z,21.72
2022-08-16T18:58:53.634Z,21.70
2022-08-16T19:01:31.923Z,21.71
2022-08-16T19:04:54.822Z,21.76
2022-08-16T19:07:09.566Z,21.74
2022-08-16T19:09:47.153Z,21.79
2022-08-16T19:12:37.949Z,21.83
2022-08-16T19:15:26.882Z,21.74
2022-08-16T19:18:04.641Z,21.71
2022-08-16T19:20:47.215Z,21.65
2022-08-16T19:23:29.301Z,21.63
2022-08-16T19:26:20.284Z,21.56
